Time;durP1;ratioP1;P1;durP2;ratioP2;P2;SDS_P1;SDS_P2;PMS_P1;PMS_P2;Temp;Humidity;BMP_temperature;BMP_pressure;BME280_temperature;BME280_humidity;BME280_pressure;Samples;Min_cycle;Max_cycle;Signal;HPM_P1;HPM_P2
2022/02/14 00:01:36;;;;;;;4.15;2.50;;;4.60;86.60;;;;;;5107455;28;20180;-67
2022/02/14 00:04:02;;;;;;;3.70;2.40;;;4.70;86.70;;;;;;5104392;28;20035;-67
2022/02/14 00:06:27;;;;;;;6.07;2.28;;;4.60;86.60;;;;;;5107403;28;20103;-67
2022/02/14 00:08:53;;;;;;;4.18;2.40;;;4.70;86.70;;;;;;5102240;28;20134;-67
2022/02/14 00:11:18;;;;;;;5.50;2.55;;;4.70;86.60;;;;;;5104903;28;20597;-67
2022/02/14 00:13:44;;;;;;;4.15;2.38;;;4.70;86.50;;;;;;5108614;28;20715;-68
2022/02/14 00:16:10;;;;;;;4.75;2.30;;;4.80;86.40;;;;;;5089603;28;20112;-67
2022/02/14 00:18:35;;;;;;;4.90;2.50;;;4.80;86.30;;;;;;5105679;28;20153;-68
2022/02/14 00:21:01;;;;;;;3.10;1.95;;;4.80;86.10;;;;;;5108176;28;20031;-67
2022/02/14 00:23:27;;;;;;;3.58;2.28;;;4.80;86.00;;;;;;5105399;28;20418;-67
2022/02/14 00:25:53;;;;;;;4.65;2.20;;;4.90;85.90;;;;;;5107404;28;20016;-67
2022/02/14 00:28:18;;;;;;;2.70;2.17;;;4.90;85.80;;;;;;5106140;28;20016;-67
2022/02/14 00:30:44;;;;;;;3.80;2.42;;;4.90;85.70;;;;;;5102165;28;20040;-68
2022/02/14 00:33:09;;;;;;;3.55;1.88;;;4.90;85.60;;;;;;5102283;28;20023;-68
2022/02/14 00:35:36;;;;;;;2.50;1.95;;;4.90;85.60;;;;;;5105074;28;20724;-67
2022/02/14 00:38:03;;;;;;;4.72;2.08;;;4.90;85.50;;;;;;5104388;28;20581;-67
2022/02/14 00:40:28;;;;;;;3.70;1.90;;;4.90;85.50;;;;;;5094646;28;20036;-67
2022/02/14 00:42:54;;;;;;;4.32;2.80;;;4.90;85.70;;;;;;5101398;28;20040;-67
2022/02/14 00:45:20;;;;;;;4.15;2.33;;;4.90;85.90;;;;;;5105308;28;20028;-67
2022/02/14 00:47:46;;;;;;;5.00;2.33;;;5.00;85.90;;;;;;5103319;28;20055;-67
2022/02/14 00:50:11;;;;;;;4.15;2.35;;;5.00;85.80;;;;;;5108009;28;20050;-67
2022/02/14 00:52:39;;;;;;;4.32;2.25;;;5.00;85.60;;;;;;5109788;28;20093;-67
2022/02/14 00:55:07;;;;;;;4.32;2.22;;;5.00;85.70;;;;;;5111299;28;20425;-67
2022/02/14 00:57:33;;;;;;;4.93;2.30;;;4.90;85.30;;;;;;5108553;28;20039;-67
2022/02/14 00:59:59;;;;;;;4.18;2.47;;;4.90;85.20;;;;;;5110983;28;20022;-67
2022/02/14 01:02:24;;;;;;;3.13;2.40;;;4.90;85.20;;;;;;5106056;28;20034;-67
2022/02/14 01:04:50;;;;;;;4.20;2.17;;;4.90;85.30;;;;;;5105423;28;20032;-67
2022/02/14 01:07:15;;;;;;;4.93;2.15;;;4.80;85.30;;;;;;5110659;28;20034;-67
2022/02/14 01:09:42;;;;;;;3.05;1.90;;;4.80;85.30;;;;;;5105232;28;20129;-67
2022/02/14 01:12:08;;;;;;;7.10;2.20;;;4.80;85.30;;;;;;5097956;28;20075;-67
2022/02/14 01:14:33;;;;;;;4.18;2.35;;;4.80;85.10;;;;;;5105312;28;20028;-67
2022/02/14 01:16:59;;;;;;;3.17;2.20;;;4.70;84.90;;;;;;5105889;28;20031;-67
2022/02/14 01:19:25;;;;;;;4.53;2.08;;;4.70;85.20;;;;;;5107538;28;20050;-67
2022/02/14 01:21:51;;;;;;;3.38;2.25;;;4.60;85.40;;;;;;5107700;28;20066;-67
2022/02/14 01:24:17;;;;;;;3.03;2.28;;;4.50;85.80;;;;;;5111601;28;20023;-67
2022/02/14 01:26:43;;;;;;;5.07;2.30;;;4.50;86.10;;;;;;5109097;28;20031;-67
2022/02/14 01:29:09;;;;;;;3.88;2.20;;;4.50;86.10;;;;;;5105407;28;20031;-67
2022/02/14 01:31:35;;;;;;;3.40;2.17;;;4.50;86.20;;;;;;5106415;28;20028;-67
2022/02/14 01:34:00;;;;;;;5.57;2.40;;;4.50;86.30;;;;;;5106399;28;20039;-67
2022/02/14 01:36:26;;;;;;;3.65;2.08;;;4.60;86.40;;;;;;5108771;28;20024;-67
2022/02/14 01:38:52;;;;;;;3.75;2.00;;;4.60;86.30;;;;;;5105800;28;20164;-67
2022/02/14 01:41:17;;;;;;;7.15;2.20;;;4.60;86.40;;;;;;5108266;28;20475;-67
2022/02/14 01:43:44;;;;;;;2.45;2.00;;;4.60;86.50;;;;;;5105140;28;20099;-67
2022/02/14 01:46:10;;;;;;;4.75;2.58;;;4.70;86.90;;;;;;5107019;28;22287;-67
2022/02/14 01:48:36;;;;;;;2.47;1.83;;;4.70;87.00;;;;;;5108034;28;20175;-67
2022/02/14 01:51:02;;;;;;;3.10;2.20;;;4.70;87.10;;;;;;5108416;28;20118;-67
2022/02/14 01:53:28;;;;;;;3.90;1.92;;;4.70;87.10;;;;;;5109434;28;20020;-68
2022/02/14 01:55:53;;;;;;;1.98;1.67;;;4.80;87.20;;;;;;5111488;28;20462;-67
2022/02/14 01:58:19;;;;;;;2.63;1.92;;;4.80;87.20;;;;;;5090681;28;20024;-67
2022/02/14 02:00:48;;;;;;;3.70;2.35;;;4.80;87.30;;;;;;5106682;28;20028;-67
2022/02/14 02:03:14;;;;;;;3.67;2.30;;;4.80;87.50;;;;;;5103728;28;20019;-67
2022/02/14 02:05:42;;;;;;;6.50;2.65;;;4.80;87.30;;;;;;5106720;28;20028;-68
2022/02/14 02:08:08;;;;;;;4.45;2.42;;;4.80;87.60;;;;;;5107566;28;20030;-67
2022/02/14 02:10:36;;;;;;;5.35;2.40;;;4.80;87.90;;;;;;5111220;28;20198;-67
2022/02/14 02:13:02;;;;;;;5.05;2.50;;;4.70;87.80;;;;;;5107655;28;20038;-67
2022/02/14 02:15:28;;;;;;;4.07;2.38;;;4.60;88.00;;;;;;5110306;28;20383;-67
2022/02/14 02:17:53;;;;;;;3.80;2.30;;;4.60;88.50;;;;;;5107237;28;20024;-67
2022/02/14 02:20:20;;;;;;;2.47;2.22;;;4.60;89.20;;;;;;5107858;27;20031;-67
2022/02/14 02:22:48;;;;;;;4.30;2.00;;;4.50;89.20;;;;;;5109010;28;20098;-67
2022/02/14 02:25:15;;;;;;;3.13;2.35;;;4.60;89.40;;;;;;5109563;28;20110;-67
2022/02/14 02:27:42;;;;;;;4.45;2.20;;;4.60;89.30;;;;;;5107874;28;20480;-67
2022/02/14 02:30:11;;;;;;;5.30;2.20;;;4.50;89.60;;;;;;5103759;28;20039;-67
2022/02/14 02:32:37;;;;;;;7.55;2.72;;;4.50;89.80;;;;;;5109785;28;20024;-67
2022/02/14 02:35:05;;;;;;;5.78;2.38;;;4.60;90.00;;;;;;5106357;28;20023;-67
2022/02/14 02:37:30;;;;;;;5.10;2.40;;;4.60;89.90;;;;;;5104911;28;20028;-67
2022/02/14 02:39:56;;;;;;;5.32;2.55;;;4.60;90.00;;;;;;5106981;28;20027;-68
2022/02/14 02:42:23;;;;;;;9.65;3.83;;;4.60;90.00;;;;;;5109321;28;20027;-67
2022/02/14 02:44:49;;;;;;;7.90;3.35;;;4.60;90.10;;;;;;5109499;28;20063;-67
2022/02/14 02:47:18;;;;;;;11.13;3.90;;;4.60;90.20;;;;;;5108503;28;20030;-67
2022/02/14 02:49:44;;;;;;;3.78;2.30;;;4.50;90.20;;;;;;5107840;28;20107;-67
2022/02/14 02:52:11;;;;;;;5.07;2.20;;;4.60;90.50;;;;;;5108394;28;20095;-67
2022/02/14 02:54:37;;;;;;;4.20;2.28;;;4.60;90.30;;;;;;5109579;28;20020;-67
2022/02/14 02:57:04;;;;;;;4.00;2.10;;;4.60;90.20;;;;;;5107786;28;20022;-67
2022/02/14 02:59:33;;;;;;;4.80;2.13;;;4.60;90.20;;;;;;5108861;28;20019;-67
2022/02/14 03:01:59;;;;;;;2.08;1.75;;;4.60;90.20;;;;;;5107348;28;20080;-67
2022/02/14 03:04:25;;;;;;;4.50;1.85;;;4.50;90.20;;;;;;5106962;28;20108;-67
2022/02/14 03:06:51;;;;;;;2.90;1.73;;;4.50;90.20;;;;;;5106423;28;20077;-67
2022/02/14 03:09:17;;;;;;;3.47;1.83;;;4.50;90.30;;;;;;5107904;28;20027;-67
2022/02/14 03:11:44;;;;;;;3.00;2.17;;;4.60;90.40;;;;;;5107651;28;20031;-67
2022/02/14 03:14:10;;;;;;;3.15;1.67;;;4.60;90.40;;;;;;5107016;28;20020;-67
2022/02/14 03:16:37;;;;;;;4.20;2.08;;;4.60;90.50;;;;;;5108328;28;20031;-67
2022/02/14 03:19:03;;;;;;;3.88;2.00;;;4.60;90.60;;;;;;5103979;28;20023;-67
2022/02/14 03:21:29;;;;;;;11.90;4.13;;;4.70;90.70;;;;;;5107668;28;20134;-67
2022/02/14 03:23:55;;;;;;;9.48;3.65;;;4.70;90.50;;;;;;5109310;28;20114;-67
2022/02/14 03:26:21;;;;;;;11.32;3.20;;;4.70;90.50;;;;;;5108212;28;20031;-67
2022/02/14 03:28:48;;;;;;;5.53;2.58;;;4.60;90.40;;;;;;5107341;28;20035;-68
2022/02/14 03:31:15;;;;;;;8.00;2.65;;;4.60;90.30;;;;;;5108723;28;20064;-67
2022/02/14 03:33:41;;;;;;;3.08;2.00;;;4.60;90.40;;;;;;5108301;28;20031;-67
2022/02/14 03:36:07;;;;;;;4.57;2.00;;;4.60;90.50;;;;;;5100582;28;20019;-67
2022/02/14 03:38:34;;;;;;;4.18;2.03;;;4.60;90.50;;;;;;5107180;28;20540;-67
2022/02/14 03:40:59;;;;;;;5.78;1.83;;;4.60;90.50;;;;;;5104472;28;20032;-68
2022/02/14 03:43:25;;;;;;;3.28;1.73;;;4.60;90.50;;;;;;5109309;28;20034;-68
2022/02/14 03:45:52;;;;;;;1.67;1.58;;;4.60;90.40;;;;;;5110012;28;20023;-68
2022/02/14 03:48:17;;;;;;;3.70;1.77;;;4.60;90.40;;;;;;5104341;28;20028;-68
2022/02/14 03:50:43;;;;;;;5.30;2.58;;;4.60;90.50;;;;;;5108533;28;20036;-68
2022/02/14 03:53:08;;;;;;;5.90;1.88;;;4.60;90.60;;;;;;5105467;28;20047;-68
2022/02/14 03:55:34;;;;;;;4.03;2.45;;;4.70;90.70;;;;;;5108028;28;20027;-67
2022/02/14 03:58:00;;;;;;;3.92;1.92;;;4.70;90.70;;;;;;5106930;28;20028;-67
2022/02/14 04:00:26;;;;;;;6.20;2.42;;;4.70;90.80;;;;;;5106801;28;20027;-67
2022/02/14 04:02:52;;;;;;;6.47;2.63;;;4.70;90.90;;;;;;5089158;28;20518;-67
2022/02/14 04:05:19;;;;;;;3.53;2.35;;;4.70;90.90;;;;;;5106831;28;20023;-68
2022/02/14 04:07:45;;;;;;;4.07;2.50;;;4.70;91.00;;;;;;5104859;28;20395;-68
2022/02/14 04:10:14;;;;;;;6.47;2.63;;;4.70;91.00;;;;;;5106701;28;20510;-68
2022/02/14 04:12:39;;;;;;;9.40;2.72;;;4.70;91.10;;;;;;5107860;28;20110;-68
2022/02/14 04:15:06;;;;;;;3.70;2.22;;;4.80;91.20;;;;;;5106263;28;20134;-67
2022/02/14 04:17:32;;;;;;;5.20;1.98;;;4.80;91.20;;;;;;5105627;28;20020;-68
2022/02/14 04:19:58;;;;;;;2.90;2.08;;;4.80;91.10;;;;;;5106547;28;20026;-67
2022/02/14 04:22:24;;;;;;;3.33;1.90;;;4.80;90.90;;;;;;5106757;28;20035;-67
2022/02/14 04:24:50;;;;;;;4.70;1.40;;;4.80;91.00;;;;;;5109143;28;20036;-67
2022/02/14 04:27:16;;;;;;;5.07;2.00;;;4.80;90.90;;;;;;5110442;28;20058;-68
2022/02/14 04:29:41;;;;;;;3.90;2.60;;;4.70;90.90;;;;;;5110828;28;20051;-68
2022/02/14 04:32:08;;;;;;;5.85;3.03;;;4.80;91.10;;;;;;5111414;28;20116;-68
2022/02/14 04:34:35;;;;;;;6.13;2.40;;;4.70;90.90;;;;;;5111295;28;20525;-68
2022/02/14 04:37:01;;;;;;;5.43;2.33;;;4.70;90.80;;;;;;5111664;28;20541;-67
2022/02/14 04:39:26;;;;;;;6.25;2.40;;;4.70;90.90;;;;;;5108232;28;20042;-68
2022/02/14 04:41:52;;;;;;;4.40;1.70;;;4.70;91.00;;;;;;5105796;28;20859;-67
2022/02/14 04:44:18;;;;;;;3.53;1.85;;;4.70;90.90;;;;;;5110325;28;20337;-67
2022/02/14 04:46:44;;;;;;;5.13;1.85;;;4.60;90.80;;;;;;5113068;28;20070;-68
2022/02/14 04:49:10;;;;;;;2.45;1.70;;;4.60;90.70;;;;;;5109539;28;20019;-67
2022/02/14 04:51:36;;;;;;;3.47;1.58;;;4.50;90.70;;;;;;5112123;28;20558;-68
2022/02/14 04:54:02;;;;;;;5.15;2.47;;;4.50;90.80;;;;;;5109184;28;20395;-67
2022/02/14 04:56:29;;;;;;;5.78;2.92;;;4.40;90.80;;;;;;5111586;28;20045;-67
2022/02/14 04:58:55;;;;;;;7.93;2.95;;;4.40;90.90;;;;;;5110177;28;20020;-67
2022/02/14 05:01:21;;;;;;;5.82;2.50;;;4.40;90.90;;;;;;5109867;28;20435;-68
2022/02/14 05:03:46;;;;;;;6.53;2.20;;;4.30;90.90;;;;;;5110678;28;20039;-68
2022/02/14 05:06:12;;;;;;;2.88;1.98;;;4.20;91.00;;;;;;5108928;28;20023;-68
2022/02/14 05:08:41;;;;;;;3.95;2.03;;;4.30;91.10;;;;;;5109844;28;20032;-68
2022/02/14 05:11:07;;;;;;;3.15;2.17;;;4.20;91.10;;;;;;5111352;28;20023;-67
2022/02/14 05:13:33;;;;;;;2.75;1.80;;;4.20;91.20;;;;;;5109049;28;20111;-67
2022/02/14 05:15:58;;;;;;;2.55;1.95;;;4.10;91.30;;;;;;5112221;28;20032;-67
2022/02/14 05:18:24;;;;;;;3.97;2.45;;;4.10;91.30;;;;;;5110863;28;20019;-68
2022/02/14 05:20:50;;;;;;;5.05;2.10;;;4.10;91.30;;;;;;5106442;28;20490;-67
2022/02/14 05:23:16;;;;;;;3.65;1.60;;;4.00;91.30;;;;;;5109741;28;20035;-68
2022/02/14 05:25:41;;;;;;;2.05;1.70;;;4.00;91.30;;;;;;5108225;28;20153;-68
2022/02/14 05:28:09;;;;;;;1.88;1.50;;;3.90;91.40;;;;;;5110056;28;20145;-67
2022/02/14 05:30:34;;;;;;;2.53;2.00;;;3.90;91.30;;;;;;5109473;28;20026;-68
2022/02/14 05:33:00;;;;;;;2.63;1.80;;;3.80;91.20;;;;;;5109532;28;20015;-67
2022/02/14 05:35:26;;;;;;;2.83;1.70;;;3.80;91.40;;;;;;5109980;28;20042;-67
2022/02/14 05:37:53;;;;;;;7.95;2.15;;;3.70;91.40;;;;;;5108199;28;20039;-67
2022/02/14 05:40:19;;;;;;;4.47;2.60;;;3.70;91.50;;;;;;5107372;28;20096;-68
2022/02/14 05:42:45;;;;;;;2.22;1.50;;;3.70;91.60;;;;;;5104896;28;20068;-68
2022/02/14 05:45:10;;;;;;;9.98;2.22;;;3.60;91.50;;;;;;5110879;28;20124;-67
2022/02/14 05:47:36;;;;;;;4.38;2.13;;;3.60;91.60;;;;;;5091541;28;20019;-68
2022/02/14 05:50:03;;;;;;;3.33;2.03;;;3.60;91.60;;;;;;5107225;28;20047;-67
2022/02/14 05:52:29;;;;;;;4.10;1.98;;;3.50;91.90;;;;;;5109754;28;20020;-68
2022/02/14 05:54:55;;;;;;;2.47;1.98;;;3.50;91.70;;;;;;5108323;28;20080;-66
2022/02/14 05:57:21;;;;;;;5.53;2.00;;;3.50;91.70;;;;;;5107749;28;20072;-68
2022/02/14 05:59:47;;;;;;;2.10;1.70;;;3.50;91.80;;;;;;5109253;28;20031;-67
2022/02/14 06:02:13;;;;;;;3.00;1.80;;;3.40;91.80;;;;;;5111170;28;20666;-67
2022/02/14 06:04:39;;;;;;;4.22;2.15;;;3.40;91.90;;;;;;5106094;28;20028;-68
2022/02/14 06:07:05;;;;;;;3.50;1.92;;;3.30;91.90;;;;;;5106994;28;20102;-67
2022/02/14 06:09:30;;;;;;;3.20;1.88;;;3.30;92.10;;;;;;5109046;28;20027;-67
2022/02/14 06:11:59;;;;;;;3.22;1.88;;;3.40;92.10;;;;;;5089855;28;20161;-66
2022/02/14 06:14:25;;;;;;;4.25;2.10;;;3.40;92.20;;;;;;5109097;28;20081;-67
2022/02/14 06:16:52;;;;;;;2.70;1.65;;;3.30;92.30;;;;;;5110585;28;20016;-69
2022/02/14 06:19:17;;;;;;;4.70;2.15;;;3.40;92.30;;;;;;5107301;28;20024;-68
2022/02/14 06:21:43;;;;;;;4.63;2.20;;;3.40;92.40;;;;;;5111264;28;20086;-68
2022/02/14 06:24:09;;;;;;;6.47;1.63;;;3.40;92.40;;;;;;5109997;28;20504;-67
2022/02/14 06:26:35;;;;;;;4.28;1.70;;;3.40;92.40;;;;;;5109456;28;20034;-68
2022/02/14 06:29:02;;;;;;;4.05;1.73;;;3.50;92.40;;;;;;5110862;28;20046;-67
2022/02/14 06:31:28;;;;;;;2.22;1.90;;;3.50;92.30;;;;;;5110337;28;20036;-68
2022/02/14 06:33:54;;;;;;;6.18;1.50;;;3.50;92.50;;;;;;5104925;28;20024;-67
2022/02/14 06:36:23;;;;;;;1.50;1.40;;;3.60;92.40;;;;;;5102813;28;20026;-67
2022/02/14 06:38:52;;;;;;;4.55;2.13;;;3.60;92.30;;;;;;5105105;28;20099;-64
2022/02/14 06:41:18;;;;;;;2.75;1.65;;;3.70;92.40;;;;;;5106377;28;20365;-66
2022/02/14 06:43:43;;;;;;;1.77;1.40;;;3.70;92.30;;;;;;5104046;28;20020;-65
2022/02/14 06:46:09;;;;;;;2.72;1.45;;;3.80;92.30;;;;;;5105402;28;20032;-67
2022/02/14 06:48:34;;;;;;;2.28;1.70;;;3.80;92.20;;;;;;5108450;28;20031;-67
2022/02/14 06:51:00;;;;;;;3.65;1.70;;;3.80;92.30;;;;;;5110642;28;20016;-68
2022/02/14 06:53:26;;;;;;;5.68;2.00;;;3.80;92.40;;;;;;5110469;28;20086;-67
2022/02/14 06:55:52;;;;;;;2.35;1.92;;;3.80;92.40;;;;;;5095217;28;20058;-68
2022/02/14 06:58:17;;;;;;;3.05;1.90;;;3.80;92.40;;;;;;5109888;28;20098;-67
2022/02/14 07:00:43;;;;;;;4.43;2.10;;;3.80;92.40;;;;;;5111388;28;20542;-68
2022/02/14 07:03:10;;;;;;;3.25;1.90;;;3.80;92.40;;;;;;5108148;28;20045;-67
2022/02/14 07:05:37;;;;;;;3.60;1.73;;;3.80;92.40;;;;;;5091283;28;20077;-68
2022/02/14 07:08:04;;;;;;;6.40;1.98;;;3.80;92.40;;;;;;5108379;28;20092;-67
2022/02/14 07:10:30;;;;;;;2.33;1.52;;;3.90;92.50;;;;;;5109801;28;20024;-68
2022/02/14 07:12:56;;;;;;;6.15;1.95;;;3.90;92.50;;;;;;5109771;28;20084;-67
2022/02/14 07:15:22;;;;;;;2.72;1.95;;;3.90;92.50;;;;;;5110934;28;20023;-67
2022/02/14 07:17:51;;;;;;;3.10;2.03;;;3.90;92.50;;;;;;5109996;28;20016;-67
2022/02/14 07:20:18;;;;;;;8.38;2.10;;;4.00;92.50;;;;;;5108305;27;20031;-67
2022/02/14 07:22:44;;;;;;;6.45;2.17;;;4.00;92.40;;;;;;5110865;28;20035;-68
2022/02/14 07:25:10;;;;;;;5.53;2.33;;;4.10;92.30;;;;;;5111377;28;20475;-67
2022/02/14 07:27:37;;;;;;;3.72;1.80;;;4.10;92.20;;;;;;5109887;28;20082;-68
2022/02/14 07:30:04;;;;;;;4.63;1.90;;;4.20;92.50;;;;;;5111503;28;20462;-67
2022/02/14 07:32:30;;;;;;;3.05;1.90;;;4.20;92.30;;;;;;5109588;28;20019;-67
2022/02/14 07:34:56;;;;;;;3.00;2.30;;;4.30;92.20;;;;;;5110432;28;20024;-68
2022/02/14 07:37:22;;;;;;;3.47;2.53;;;4.30;92.30;;;;;;5109457;28;20775;-67
2022/02/14 07:39:48;;;;;;;11.40;2.50;;;4.40;92.20;;;;;;5111184;28;20054;-67
2022/02/14 07:42:13;;;;;;;2.22;1.83;;;4.40;92.20;;;;;;5110806;28;20055;-67
2022/02/14 07:44:39;;;;;;;2.17;1.50;;;4.40;92.10;;;;;;5110590;28;20056;-67
2022/02/14 07:47:05;;;;;;;3.33;1.80;;;4.40;92.10;;;;;;5110274;28;20551;-68
2022/02/14 07:49:30;;;;;;;5.72;2.05;;;4.40;92.10;;;;;;5110484;28;20372;-67
2022/02/14 07:51:56;;;;;;;4.32;1.98;;;4.40;92.10;;;;;;5110557;28;20032;-67
2022/02/14 07:54:21;;;;;;;3.38;1.75;;;4.50;92.30;;;;;;5092041;28;20069;-67
2022/02/14 07:56:47;;;;;;;4.35;2.08;;;4.50;92.40;;;;;;5110911;28;20718;-67
2022/02/14 07:59:13;;;;;;;2.83;1.92;;;5.20;92.10;;;;;;5092574;28;20016;-67
2022/02/14 08:01:38;;;;;;;4.97;2.15;;;5.80;92.00;;;;;;5117437;28;20421;-68
2022/02/14 08:04:05;;;;;;;3.17;1.77;;;6.30;92.00;;;;;;5116093;28;20020;-68
2022/02/14 08:06:31;;;;;;;3.15;2.13;;;6.70;92.10;;;;;;5111576;28;20094;-67
2022/02/14 08:08:57;;;;;;;5.28;2.35;;;7.10;92.30;;;;;;5115937;28;20391;-68
2022/02/14 08:11:23;;;;;;;3.50;1.42;;;7.40;92.40;;;;;;5117292;28;20027;-66
2022/02/14 08:13:48;;;;;;;3.83;1.50;;;7.60;92.30;;;;;;5116467;28;20023;-68
2022/02/14 08:16:14;;;;;;;3.38;1.92;;;7.60;92.00;;;;;;5117564;28;20644;-66
2022/02/14 08:18:39;;;;;;;5.72;1.80;;;7.60;91.70;;;;;;5115725;28;20016;-66
2022/02/14 08:21:05;;;;;;;3.28;1.70;;;7.60;91.20;;;;;;5117173;28;20035;-66
2022/02/14 08:23:30;;;;;;;5.18;1.80;;;7.50;90.80;;;;;;5116764;28;20027;-69
2022/02/14 08:25:56;;;;;;;6.57;1.75;;;7.50;90.80;;;;;;5116547;28;20098;-66
2022/02/14 08:28:22;;;;;;;3.47;1.90;;;7.60;90.80;;;;;;5116473;28;20024;-66
2022/02/14 08:30:51;;;;;;;6.70;2.63;;;7.70;90.80;;;;;;5116859;28;20031;-66
2022/02/14 08:33:17;;;;;;;7.15;3.20;;;7.70;90.60;;;;;;5117110;28;20038;-66
2022/02/14 08:35:44;;;;;;;3.50;1.55;;;7.70;90.00;;;;;;5115768;28;20049;-67
2022/02/14 08:38:11;;;;;;;5.03;1.58;;;7.80;88.70;;;;;;5116356;28;20019;-66
2022/02/14 08:40:37;;;;;;;3.30;1.95;;;7.80;88.00;;;;;;5116746;28;20034;-66
2022/02/14 08:43:04;;;;;;;3.72;1.65;;;7.90;86.90;;;;;;5098943;28;20134;-66
2022/02/14 08:45:31;;;;;;;7.13;1.90;;;7.90;86.00;;;;;;5117042;28;20421;-66
2022/02/14 08:47:57;;;;;;;6.05;1.75;;;8.00;85.20;;;;;;5115708;28;20032;-66
2022/02/14 08:50:23;;;;;;;6.88;3.03;;;8.00;84.50;;;;;;5116657;28;20039;-66
2022/02/14 08:52:49;;;;;;;4.07;1.73;;;8.00;83.80;;;;;;5116288;28;20028;-67
2022/02/14 08:55:15;;;;;;;3.72;1.60;;;8.00;83.10;;;;;;5116753;28;20116;-67
2022/02/14 08:57:42;;;;;;;3.67;1.83;;;7.90;82.40;;;;;;5115589;27;20328;-66
2022/02/14 09:00:08;;;;;;;3.40;1.50;;;7.90;81.90;;;;;;5117074;28;20031;-67
2022/02/14 09:02:34;;;;;;;4.85;2.10;;;7.90;81.70;;;;;;5117047;28;20027;-67
2022/02/14 09:05:00;;;;;;;5.32;2.08;;;7.80;81.50;;;;;;5109879;28;20495;-66
2022/02/14 09:07:25;;;;;;;4.88;2.00;;;7.90;81.30;;;;;;5115651;28;20026;-66
2022/02/14 09:09:51;;;;;;;3.97;2.00;;;7.90;81.50;;;;;;5116382;28;20032;-66
2022/02/14 09:12:18;;;;;;;15.23;4.22;;;7.90;81.10;;;;;;5113743;28;20024;-67
2022/02/14 09:14:44;;;;;;;4.45;1.60;;;8.00;81.30;;;;;;5112568;28;20031;-66
2022/02/14 09:17:10;;;;;;;4.85;2.08;;;8.10;81.10;;;;;;5094150;28;20031;-67
2022/02/14 09:19:36;;;;;;;7.15;3.42;;;8.20;80.70;;;;;;5112241;28;20100;-66
2022/02/14 09:22:01;;;;;;;5.85;2.35;;;8.30;80.50;;;;;;5109507;28;20063;-66
2022/02/14 09:24:27;;;;;;;5.57;1.83;;;8.40;80.20;;;;;;5113638;28;20047;-66
2022/02/14 09:26:53;;;;;;;2.15;1.60;;;8.40;79.70;;;;;;5112484;28;20097;-66
2022/02/14 09:29:20;;;;;;;3.15;1.70;;;8.50;79.40;;;;;;5112767;28;20475;-68
2022/02/14 09:31:46;;;;;;;5.50;1.63;;;8.60;79.10;;;;;;5112709;28;20114;-66
2022/02/14 09:34:12;;;;;;;3.97;1.60;;;8.80;78.90;;;;;;5112581;28;20103;-68
2022/02/14 09:36:38;;;;;;;3.25;1.45;;;8.90;78.40;;;;;;5112864;28;20049;-66
2022/02/14 09:39:05;;;;;;;2.03;1.38;;;9.00;78.50;;;;;;5111663;28;20020;-68
2022/02/14 09:41:31;;;;;;;2.88;1.40;;;9.20;78.80;;;;;;5112012;28;20054;-66
2022/02/14 09:43:56;;;;;;;4.25;1.83;;;9.40;78.20;;;;;;5112426;28;20059;-66
2022/02/14 09:46:22;;;;;;;8.55;3.05;;;9.60;77.80;;;;;;5113061;28;20080;-66
2022/02/14 09:48:48;;;;;;;3.00;1.67;;;9.70;77.70;;;;;;5111318;28;20024;-66
2022/02/14 09:51:17;;;;;;;2.95;1.90;;;9.90;77.60;;;;;;5112928;28;20391;-66
2022/02/14 09:53:43;;;;;;;6.05;1.45;;;10.00;76.90;;;;;;5112681;28;20051;-67
2022/02/14 09:56:10;;;;;;;3.20;1.70;;;10.10;76.20;;;;;;5112490;28;20050;-67
2022/02/14 09:58:36;;;;;;;2.00;1.40;;;10.10;75.60;;;;;;5111865;28;20076;-67
2022/02/14 10:01:01;;;;;;;3.75;1.80;;;10.20;75.70;;;;;;5112516;28;20027;-67
2022/02/14 10:03:27;;;;;;;5.90;1.60;;;10.20;75.70;;;;;;5112843;28;20023;-67
2022/02/14 10:05:54;;;;;;;3.85;1.48;;;10.30;75.60;;;;;;5094302;28;20709;-67
2022/02/14 10:08:35;;;;;;;5.43;1.42;;;10.40;75.50;;;;;;5110536;28;20023;-67
2022/02/14 10:11:18;;;;;;;2.55;1.60;;;10.40;75.00;;;;;;5112573;28;20080;-67
2022/02/14 10:13:50;;;;;;;;;;;10.40;74.70;;;;;;5113024;28;20028;-67
2022/02/14 10:16:16;;;;;;;5.72;1.88;;;10.50;75.80;;;;;;5113274;28;19904;-67
2022/02/14 10:18:43;;;;;;;4.28;1.80;;;10.60;76.10;;;;;;5110840;28;20027;-67
2022/02/14 10:21:23;;;;;;;1.90;1.48;;;10.70;75.90;;;;;;5112711;28;20139;-67
2022/02/14 10:24:05;;;;;;;6.03;1.42;;;10.80;75.40;;;;;;5111377;28;20042;-67
2022/02/14 10:26:33;;;;;;;3.07;1.43;;;10.90;75.60;;;;;;5111899;28;20024;-68
2022/02/14 10:29:09;;;;;;;3.40;1.40;;;11.00;75.90;;;;;;5111822;28;20057;-67
2022/02/14 10:31:42;;;;;;;5.43;1.50;;;11.10;75.40;;;;;;5111170;28;20430;-67
2022/02/14 10:34:07;;;;;;;;;;;11.10;75.50;;;;;;5112344;28;20016;-67
2022/02/14 10:36:36;;;;;;;5.32;1.50;;;11.10;76.30;;;;;;5111112;28;19998;-67
2022/02/14 10:39:16;;;;;;;4.13;1.80;;;11.10;76.20;;;;;;5111458;28;20052;-68
2022/02/14 10:41:45;;;;;;;2.60;1.40;;;11.10;75.90;;;;;;5111684;28;20679;-67
2022/02/14 10:45:07;;;;;;;4.65;1.20;;;11.10;76.00;;;;;;5111872;28;20024;-67
2022/02/14 10:47:15;;;;;;;7.75;2.67;;;11.10;75.70;;;;;;5109935;28;20047;-67
2022/02/14 10:49:41;;;;;;;8.90;1.35;;;11.20;75.80;;;;;;5111020;28;20047;-67
2022/02/14 10:52:12;;;;;;;3.85;1.23;;;11.20;76.00;;;;;;5110312;28;20027;-67
2022/02/14 10:54:41;;;;;;;2.70;1.50;;;11.20;76.00;;;;;;5111636;28;20012;-68
2022/02/14 10:57:21;;;;;;;4.43;1.50;;;11.20;76.00;;;;;;5110466;28;20026;-67
2022/02/14 10:59:59;;;;;;;3.22;1.52;;;11.30;76.20;;;;;;5111599;28;20024;-67
2022/02/14 11:02:25;;;;;;;5.30;1.20;;;11.30;75.90;;;;;;5111716;28;20668;-67
2022/02/14 11:04:50;;;;;;;2.92;1.50;;;11.30;76.10;;;;;;5111061;28;20019;-67
2022/02/14 11:07:17;;;;;;;7.82;2.03;;;11.30;76.20;;;;;;5109921;28;20059;-67
2022/02/14 11:09:48;;;;;;;3.28;1.60;;;11.30;76.10;;;;;;5110800;28;20100;-67
2022/02/14 11:12:17;;;;;;;3.65;1.63;;;11.40;76.00;;;;;;5111311;28;20039;-68
2022/02/14 11:14:54;;;;;;;3.47;1.73;;;11.40;76.00;;;;;;5111701;28;20161;-67
2022/02/14 11:17:24;;;;;;;4.78;1.50;;;11.40;76.00;;;;;;5109142;28;20106;-67
2022/02/14 11:19:59;;;;;;;4.93;1.42;;;11.40;75.90;;;;;;5111221;28;20104;-68
2022/02/14 11:22:28;;;;;;;2.70;1.40;;;11.40;75.80;;;;;;5108960;22;20051;-67
2022/02/14 11:25:14;;;;;;;2.88;1.58;;;11.40;75.70;;;;;;5089123;28;20038;-67
2022/02/14 11:27:52;;;;;;;5.70;1.40;;;11.50;75.70;;;;;;5083951;28;20028;-67
2022/02/14 11:30:18;;;;;;;4.10;1.48;;;11.50;75.90;;;;;;5089707;28;20161;-67
2022/02/14 11:33:09;;;;;;;4.18;1.60;;;11.50;75.90;;;;;;5089574;28;20020;-67
2022/02/14 11:35:34;;;;;;;2.85;1.30;;;11.50;75.70;;;;;;5089434;28;20028;-67
2022/02/14 11:38:01;;;;;;;5.57;1.30;;;11.60;76.20;;;;;;5071085;28;20021;-67
2022/02/14 11:40:57;;;;;;;3.22;1.40;;;11.60;76.10;;;;;;5090021;28;20368;-66
2022/02/14 11:43:23;;;;;;;5.15;1.58;;;11.70;75.90;;;;;;5070109;28;20032;-66
2022/02/14 11:46:18;;;;;;;5.15;1.77;;;11.70;76.00;;;;;;5089364;28;20451;-66
2022/02/14 11:49:04;;;;;;;4.28;1.63;;;11.70;76.10;;;;;;5089181;28;20074;-66
2022/02/14 11:51:38;;;;;;;10.45;2.50;;;11.80;76.60;;;;;;5070768;28;20032;-66
2022/02/14 11:54:05;;;;;;;5.63;2.20;;;11.90;76.50;;;;;;5064267;28;20035;-66
2022/02/14 11:56:32;;;;;;;6.53;2.20;;;11.90;76.50;;;;;;5089584;28;20101;-67
2022/02/14 11:59:10;;;;;;;6.57;1.70;;;12.00;76.50;;;;;;5083568;28;20013;-67
2022/02/14 12:01:46;;;;;;;3.60;1.80;;;12.10;76.50;;;;;;5084779;28;20610;-67
2022/02/14 12:04:30;;;;;;;8.88;1.85;;;12.20;76.20;;;;;;5089219;28;20047;-67
2022/02/14 12:07:20;;;;;;;2.85;1.60;;;12.30;76.40;;;;;;5070690;28;20024;-66
2022/02/14 12:10:00;;;;;;;3.92;1.50;;;12.40;76.50;;;;;;5089028;28;20025;-66
2022/02/14 12:12:49;;;;;;;2.58;1.38;;;12.50;76.50;;;;;;5068939;28;20028;-66
2022/02/14 12:20:34;;;;;;;3.97;1.38;;;12.60;76.50;;;;;;5088373;28;20027;-67
2022/02/14 12:21:00;;;;;;;1.75;0.93;;;12.70;76.60;;;;;;5088517;28;20499;-68
2022/02/14 12:23:30;;;;;;;6.18;1.30;;;12.70;76.40;;;;;;5068882;28;20035;-67
2022/02/14 12:25:57;;;;;;;3.90;1.00;;;12.70;76.30;;;;;;5088683;28;20336;-67
2022/02/14 12:28:24;;;;;;;3.97;1.52;;;12.70;76.40;;;;;;5087194;28;20052;-68
2022/02/14 12:30:50;;;;;;;5.53;1.13;;;12.70;76.40;;;;;;5089109;28;20656;-68
2022/02/14 12:33:16;;;;;;;4.40;1.33;;;12.80;76.70;;;;;;5088949;28;20054;-68
2022/02/14 12:35:47;;;;;;;2.05;1.20;;;12.80;76.50;;;;;;5089159;28;20483;-67
2022/02/14 12:38:13;;;;;;;7.47;1.60;;;12.70;76.20;;;;;;5088380;28;20099;-67
2022/02/14 12:40:50;;;;;;;3.65;1.30;;;12.70;76.20;;;;;;5089284;28;20097;-67
2022/02/14 12:43:43;;;;;;;7.38;1.63;;;12.70;76.10;;;;;;5088123;28;20028;-67
2022/02/14 12:46:20;;;;;;;5.50;1.70;;;12.70;75.90;;;;;;5070870;28;20390;-67
2022/02/14 12:48:49;;;;;;;3.05;1.25;;;12.70;76.20;;;;;;5090892;28;20161;-68
2022/02/14 12:51:31;;;;;;;5.57;1.45;;;12.70;76.20;;;;;;5093096;28;20024;-67
2022/02/14 12:53:58;;;;;;;;;;;12.70;76.10;;;;;;5091389;28;20031;-67
2022/02/14 12:56:29;;;;;;;3.35;1.20;;;12.60;76.60;;;;;;5092197;28;20530;-67
2022/02/14 12:59:09;;;;;;;3.30;1.40;;;12.60;76.80;;;;;;5072221;28;20028;-67
2022/02/14 13:01:44;;;;;;;4.40;1.85;;;12.60;76.80;;;;;;5081060;28;20046;-67